Time;durP1;ratioP1;P1;durP2;ratioP2;P2;SDS_P1;SDS_P2;PMS_P1;PMS_P2;Temp;Humidity;BMP_temperature;BMP_pressure;BME280_temperature;BME280_humidity;BME280_pressure;Samples;Min_cycle;Max_cycle;Signal;HPM_P1;HPM_P2
2021/09/29 00:00:18;;;;;;;5.63;3.50;;;;;;;;;;5067745;28;20210;-75
2021/09/29 00:02:44;;;;;;;10.90;4.50;;;;;;;;;;5067792;28;20671;-75
2021/09/29 00:05:11;;;;;;;7.23;3.30;;;;;;;;;;5067675;28;20210;-75
2021/09/29 00:07:38;;;;;;;8.90;3.00;;;;;;;;;;5067523;28;20221;-75
2021/09/29 00:10:06;;;;;;;9.03;4.07;;;;;;;;;;5067315;28;20230;-75
2021/09/29 00:12:34;;;;;;;9.93;3.70;;;;;;;;;;5067540;28;20255;-75
2021/09/29 00:15:00;;;;;;;11.37;3.80;;;;;;;;;;5067074;28;20656;-75
2021/09/29 00:17:27;;;;;;;9.00;3.90;;;;;;;;;;5067373;28;20229;-75
2021/09/29 00:19:53;;;;;;;7.43;3.57;;;;;;;;;;5067437;28;20241;-75
2021/09/29 00:22:20;;;;;;;9.00;4.40;;;;;;;;;;5067440;28;20271;-75
2021/09/29 00:24:46;;;;;;;5.70;3.40;;;;;;;;;;5067273;28;20282;-75
2021/09/29 00:27:13;;;;;;;9.43;3.97;;;;;;;;;;5067390;28;20218;-75
2021/09/29 00:29:41;;;;;;;8.03;3.70;;;;;;;;;;5067287;28;20680;-75
2021/09/29 00:32:08;;;;;;;8.03;4.37;;;;;;;;;;5067425;28;20664;-75
2021/09/29 00:34:36;;;;;;;7.83;4.00;;;;;;;;;;5067262;28;20263;-75
2021/09/29 00:37:03;;;;;;;7.13;4.10;;;;;;;;;;5067419;28;20631;-75
2021/09/29 00:39:30;;;;;;;7.37;4.20;;;;;;;;;;5066363;28;20693;-75
2021/09/29 00:41:57;;;;;;;8.50;3.80;;;;;;;;;;5067095;28;20237;-75
2021/09/29 00:44:24;;;;;;;7.17;3.50;;;;;;;;;;5066974;28;20210;-75
2021/09/29 00:46:52;;;;;;;8.77;4.00;;;;;;;;;;5066846;28;20263;-75
2021/09/29 00:49:19;;;;;;;7.23;4.07;;;;;;;;;;5066771;28;20233;-75
2021/09/29 00:51:45;;;;;;;9.57;4.00;;;;;;;;;;5067308;28;20930;-75
2021/09/29 00:54:12;;;;;;;8.70;3.47;;;;;;;;;;5066287;28;20296;-75
2021/09/29 00:56:38;;;;;;;6.67;3.90;;;;;;;;;;5066367;28;20299;-75
2021/09/29 00:59:05;;;;;;;7.10;3.67;;;;;;;;;;5067049;28;20240;-76
2021/09/29 01:01:32;;;;;;;8.43;4.10;;;;;;;;;;5067022;28;20213;-75
2021/09/29 01:04:02;;;;;;;9.70;4.83;;;;;;;;;;5067026;28;20212;-77
2021/09/29 01:06:42;;;;;;;8.80;4.23;;;;;;;;;;5066802;28;20275;-75
2021/09/29 01:09:14;;;;;;;8.77;3.53;;;;;;;;;;5066774;28;20274;-77
2021/09/29 01:11:52;;;;;;;8.37;3.73;;;;;;;;;;5066826;28;20222;-75
2021/09/29 01:14:27;;;;;;;7.83;4.20;;;;;;;;;;5070356;28;20206;-75
2021/09/29 01:16:57;;;;;;;6.60;3.20;;;;;;;;;;5070355;28;20291;-75
2021/09/29 01:19:38;;;;;;;8.63;4.27;;;;;;;;;;5070716;28;20300;-75
2021/09/29 01:22:10;;;;;;;8.80;4.23;;;;;;;;;;5070752;28;20217;-75
2021/09/29 01:24:41;;;;;;;8.00;4.07;;;;;;;;;;5070303;28;20205;-75
2021/09/29 01:27:10;;;;;;;5.30;4.00;;;;;;;;;;5070375;28;20218;-75
2021/09/29 01:29:37;;;;;;;6.70;4.13;;;;;;;;;;5070019;28;20237;-77
2021/09/29 01:32:05;;;;;;;7.17;3.47;;;;;;;;;;5070339;28;20214;-76
2021/09/29 01:34:31;;;;;;;7.70;3.90;;;;;;;;;;5069974;28;20209;-75
2021/09/29 01:36:59;;;;;;;9.23;4.43;;;;;;;;;;5070191;28;20210;-75
2021/09/29 01:39:27;;;;;;;10.37;4.47;;;;;;;;;;5069365;28;20715;-75
2021/09/29 01:41:54;;;;;;;6.20;4.00;;;;;;;;;;5069854;28;20226;-75
2021/09/29 01:44:22;;;;;;;6.67;4.20;;;;;;;;;;5070107;28;20755;-75
2021/09/29 01:46:48;;;;;;;8.83;4.20;;;;;;;;;;5070019;28;20653;-75
2021/09/29 01:49:19;;;;;;;7.83;3.97;;;;;;;;;;5069721;28;20806;-75
2021/09/29 01:51:50;;;;;;;9.53;4.43;;;;;;;;;;5069615;28;20251;-77
2021/09/29 01:54:18;;;;;;;11.30;4.50;;;;;;;;;;5069693;28;20727;-75
2021/09/29 01:56:45;;;;;;;7.70;4.10;;;;;;;;;;5069826;28;20795;-75
2021/09/29 01:59:13;;;;;;;6.63;4.00;;;;;;;;;;5069960;28;20587;-75
2021/09/29 02:01:42;;;;;;;10.87;4.43;;;;;;;;;;5070040;28;20267;-75
2021/09/29 02:04:12;;;;;;;6.27;3.93;;;;;;;;;;5069601;28;20281;-75
2021/09/29 02:06:46;;;;;;;7.67;4.17;;;;;;;;;;5069898;28;20275;-75
2021/09/29 02:09:13;;;;;;;7.50;4.03;;;;;;;;;;5069716;28;20233;-75
2021/09/29 02:11:39;;;;;;;8.30;4.73;;;;;;;;;;5069893;28;20701;-75
2021/09/29 02:14:06;;;;;;;5.27;4.37;;;;;;;;;;5069647;28;20227;-75
2021/09/29 02:16:32;;;;;;;7.13;4.17;;;;;;;;;;5069154;28;20214;-75
2021/09/29 02:19:00;;;;;;;12.73;4.67;;;;;;;;;;5069636;28;20766;-75
2021/09/29 02:21:27;;;;;;;7.20;4.70;;;;;;;;;;5069397;28;20542;-75
2021/09/29 02:23:53;;;;;;;7.57;4.87;;;;;;;;;;5069672;28;20210;-75
2021/09/29 02:26:20;;;;;;;7.63;4.67;;;;;;;;;;5068918;28;20237;-75
2021/09/29 02:28:46;;;;;;;7.40;4.73;;;;;;;;;;5069467;28;20280;-75
2021/09/29 02:31:13;;;;;;;7.77;4.87;;;;;;;;;;5069167;28;20262;-75
2021/09/29 02:33:39;;;;;;;7.97;4.90;;;;;;;;;;5069101;28;20218;-75
2021/09/29 02:36:07;;;;;;;9.60;4.77;;;;;;;;;;5069511;28;20217;-75
2021/09/29 02:38:34;;;;;;;10.70;5.20;;;;;;;;;;5068770;28;20259;-75
2021/09/29 02:41:00;;;;;;;8.03;5.27;;;;;;;;;;5068342;28;20236;-75
2021/09/29 02:43:27;;;;;;;8.90;5.77;;;;;;;;;;5068770;28;20283;-75
2021/09/29 02:45:53;;;;;;;6.90;4.63;;;;;;;;;;5069207;28;20709;-75
2021/09/29 02:48:20;;;;;;;10.40;5.37;;;;;;;;;;5069022;28;20564;-75
2021/09/29 02:50:46;;;;;;;7.83;5.27;;;;;;;;;;5068853;28;20214;-75
2021/09/29 02:53:14;;;;;;;10.43;5.40;;;;;;;;;;5068486;28;20218;-75
2021/09/29 02:55:40;;;;;;;7.83;5.17;;;;;;;;;;5068400;28;20318;-75
2021/09/29 02:58:06;;;;;;;7.33;5.03;;;;;;;;;;5068173;28;20263;-75
2021/09/29 03:00:33;;;;;;;8.50;5.60;;;;;;;;;;5068597;28;20251;-75
2021/09/29 03:02:59;;;;;;;8.40;5.37;;;;;;;;;;5068796;28;20213;-75
2021/09/29 03:05:26;;;;;;;9.33;5.03;;;;;;;;;;5068704;28;20221;-75
2021/09/29 03:07:52;;;;;;;8.07;5.13;;;;;;;;;;5068343;28;20210;-75
2021/09/29 03:10:20;;;;;;;6.80;5.67;;;;;;;;;;5068682;28;20700;-75
2021/09/29 03:12:46;;;;;;;15.67;5.60;;;;;;;;;;5068184;28;20209;-75
2021/09/29 03:15:14;;;;;;;9.43;5.97;;;;;;;;;;5068733;28;20214;-75
2021/09/29 03:17:41;;;;;;;7.97;5.77;;;;;;;;;;5068406;28;20583;-75
2021/09/29 03:20:09;;;;;;;10.23;5.93;;;;;;;;;;5068260;28;20236;-75
2021/09/29 03:22:35;;;;;;;9.37;5.90;;;;;;;;;;5068446;28;20271;-75
2021/09/29 03:25:02;;;;;;;10.17;5.73;;;;;;;;;;5067973;28;20237;-75
2021/09/29 03:27:29;;;;;;;7.03;5.73;;;;;;;;;;5068038;28;20206;-75
2021/09/29 03:29:56;;;;;;;9.63;5.43;;;;;;;;;;5068008;28;20241;-75
2021/09/29 03:32:22;;;;;;;8.40;6.00;;;;;;;;;;5067966;28;21175;-75
2021/09/29 03:34:49;;;;;;;9.87;5.13;;;;;;;;;;5067948;28;20205;-75
2021/09/29 03:37:15;;;;;;;10.87;5.37;;;;;;;;;;5067332;28;20222;-75
2021/09/29 03:39:41;;;;;;;9.33;5.07;;;;;;;;;;5068089;28;20548;-75
2021/09/29 03:42:08;;;;;;;13.20;5.80;;;;;;;;;;5068029;28;20261;-75
2021/09/29 03:44:36;;;;;;;8.50;4.90;;;;;;;;;;5068096;28;20210;-75
2021/09/29 03:47:02;;;;;;;7.97;5.47;;;;;;;;;;5068122;28;20588;-75
2021/09/29 03:49:29;;;;;;;8.40;5.70;;;;;;;;;;5067617;28;20295;-75
2021/09/29 03:51:55;;;;;;;8.33;5.10;;;;;;;;;;5067951;28;20214;-75
2021/09/29 03:54:22;;;;;;;9.43;4.90;;;;;;;;;;5067195;28;20288;-75
2021/09/29 03:56:48;;;;;;;7.63;4.30;;;;;;;;;;5067563;28;20287;-75
2021/09/29 03:59:15;;;;;;;8.13;4.73;;;;;;;;;;5067852;28;20568;-74
2021/09/29 04:01:43;;;;;;;12.03;4.63;;;;;;;;;;5067738;28;20214;-75
2021/09/29 04:04:10;;;;;;;12.70;5.03;;;;;;;;;;5067643;28;20232;-75
2021/09/29 04:06:36;;;;;;;8.30;5.00;;;;;;;;;;5067606;28;20217;-75
2021/09/29 04:09:03;;;;;;;15.07;5.30;;;;;;;;;;5067503;28;20236;-77
2021/09/29 04:11:29;;;;;;;9.33;5.50;;;;;;;;;;5067842;28;20230;-79
2021/09/29 04:13:57;;;;;;;7.90;6.60;;;;;;;;;;5068875;28;20483;-76
2021/09/29 04:16:24;;;;;;;10.70;6.17;;;;;;;;;;5049315;28;20220;-75
2021/09/29 04:18:52;;;;;;;11.23;6.60;;;;;;;;;;5067361;28;20214;-75
2021/09/29 04:21:19;;;;;;;9.93;6.40;;;;;;;;;;5067298;28;20300;-75
2021/09/29 04:23:45;;;;;;;11.73;6.73;;;;;;;;;;5067535;28;20213;-74
2021/09/29 04:26:11;;;;;;;11.87;6.33;;;;;;;;;;5067076;28;20294;-74
2021/09/29 04:28:38;;;;;;;8.77;6.10;;;;;;;;;;5067289;28;20216;-75
2021/09/29 04:31:04;;;;;;;11.60;5.97;;;;;;;;;;5067203;28;20252;-74
2021/09/29 04:33:31;;;;;;;10.07;5.83;;;;;;;;;;5066915;28;20213;-76
2021/09/29 04:35:59;;;;;;;8.63;6.03;;;;;;;;;;5067085;28;20209;-75
2021/09/29 04:38:25;;;;;;;9.50;6.07;;;;;;;;;;5066499;28;20222;-74
2021/09/29 04:40:52;;;;;;;7.50;6.23;;;;;;;;;;5066341;28;20229;-75
2021/09/29 04:43:18;;;;;;;10.07;6.00;;;;;;;;;;5066875;28;20212;-75
2021/09/29 04:45:46;;;;;;;15.67;6.40;;;;;;;;;;5067082;28;20225;-76
2021/09/29 04:48:14;;;;;;;8.30;5.70;;;;;;;;;;5067935;28;20292;-75
2021/09/29 04:50:41;;;;;;;10.90;6.33;;;;;;;;;;5071036;28;20749;-73
2021/09/29 04:53:08;;;;;;;11.23;5.73;;;;;;;;;;5071109;28;20222;-73
2021/09/29 04:55:35;;;;;;;8.60;6.30;;;;;;;;;;5070266;28;20245;-73
2021/09/29 04:58:03;;;;;;;11.33;6.33;;;;;;;;;;5070952;28;20213;-73
2021/09/29 05:00:30;;;;;;;11.00;6.20;;;;;;;;;;5070422;28;20301;-72
2021/09/29 05:02:58;;;;;;;8.07;5.30;;;;;;;;;;5070620;28;20271;-73
2021/09/29 05:05:25;;;;;;;9.03;6.20;;;;;;;;;;5070722;28;20221;-72
2021/09/29 05:07:54;;;;;;;7.17;6.30;;;;;;;;;;5070214;28;21028;-72
2021/09/29 05:10:30;;;;;;;9.77;6.10;;;;;;;;;;5070426;28;20700;-72
2021/09/29 05:12:59;;;;;;;9.97;6.23;;;;;;;;;;5070388;28;20217;-72
2021/09/29 05:15:25;;;;;;;7.13;5.53;;;;;;;;;;5070019;28;20218;-72
2021/09/29 05:17:52;;;;;;;14.90;6.00;;;;;;;;;;5070091;28;20636;-72
2021/09/29 05:20:18;;;;;;;11.30;6.10;;;;;;;;;;5070187;28;20220;-72
2021/09/29 05:22:45;;;;;;;9.43;5.70;;;;;;;;;;5070234;28;20221;-72
2021/09/29 05:25:12;;;;;;;9.93;5.33;;;;;;;;;;5070090;28;21024;-72
2021/09/29 05:27:39;;;;;;;10.63;6.67;;;;;;;;;;5069880;28;20263;-72
2021/09/29 05:30:07;;;;;;;12.13;6.17;;;;;;;;;;5069722;28;20291;-72
2021/09/29 05:32:33;;;;;;;9.23;6.10;;;;;;;;;;5069981;28;20674;-73
2021/09/29 05:35:00;;;;;;;12.30;5.67;;;;;;;;;;5069540;28;20212;-74
2021/09/29 05:37:26;;;;;;;11.17;5.93;;;;;;;;;;5070135;28;20225;-75
2021/09/29 05:39:53;;;;;;;9.37;5.93;;;;;;;;;;5069529;28;20609;-75
2021/09/29 05:42:19;;;;;;;11.83;6.37;;;;;;;;;;5069333;28;20221;-73
2021/09/29 05:44:47;;;;;;;10.13;6.30;;;;;;;;;;5068763;28;20220;-73
2021/09/29 05:47:14;;;;;;;13.00;6.90;;;;;;;;;;5068283;28;20217;-75
2021/09/29 05:49:40;;;;;;;10.37;6.53;;;;;;;;;;5068443;28;20237;-74
2021/09/29 05:52:07;;;;;;;13.30;7.50;;;;;;;;;;5068268;28;20225;-74
2021/09/29 05:54:34;;;;;;;13.13;7.33;;;;;;;;;;5067831;28;20249;-71
2021/09/29 05:57:00;;;;;;;10.57;7.03;;;;;;;;;;5069242;28;20278;-74
2021/09/29 05:59:27;;;;;;;11.77;6.70;;;;;;;;;;5068604;28;20216;-74
2021/09/29 06:01:55;;;;;;;8.77;6.90;;;;;;;;;;5067865;28;20221;-74
2021/09/29 06:04:21;;;;;;;12.60;7.03;;;;;;;;;;5069310;28;20737;-73
2021/09/29 06:06:47;;;;;;;12.37;6.97;;;;;;;;;;5068814;28;20226;-73
2021/09/29 06:09:14;;;;;;;11.43;7.20;;;;;;;;;;5066828;28;20220;-73
2021/09/29 06:11:40;;;;;;;12.73;7.83;;;;;;;;;;5065814;28;21640;-73
2021/09/29 06:14:07;;;;;;;9.33;7.50;;;;;;;;;;5065556;28;20263;-70
2021/09/29 06:16:36;;;;;;;10.87;7.33;;;;;;;;;;5067192;28;20558;-70
2021/09/29 06:19:06;;;;;;;12.03;7.37;;;;;;;;;;5066996;28;20324;-70
2021/09/29 06:21:32;;;;;;;10.97;7.60;;;;;;;;;;5066675;28;20259;-70
2021/09/29 06:23:59;;;;;;;12.03;6.93;;;;;;;;;;5066899;28;20224;-73
2021/09/29 06:26:25;;;;;;;11.17;7.90;;;;;;;;;;5066731;28;20292;-73
2021/09/29 06:28:52;;;;;;;10.73;7.00;;;;;;;;;;5066767;28;20627;-73
2021/09/29 06:31:18;;;;;;;10.93;7.53;;;;;;;;;;5066539;28;20858;-73
2021/09/29 06:33:49;;;;;;;10.37;7.33;;;;;;;;;;5067201;28;20205;-73
2021/09/29 06:36:17;;;;;;;12.83;7.10;;;;;;;;;;5066517;28;20900;-73
2021/09/29 06:38:43;;;;;;;11.80;7.30;;;;;;;;;;5066568;28;20614;-73
2021/09/29 06:41:10;;;;;;;12.70;7.53;;;;;;;;;;5065777;28;20261;-72
2021/09/29 06:43:36;;;;;;;10.97;7.17;;;;;;;;;;5067190;28;21040;-73
2021/09/29 06:46:03;;;;;;;10.53;7.50;;;;;;;;;;5066592;28;20206;-73
2021/09/29 06:48:29;;;;;;;8.83;6.87;;;;;;;;;;5066537;28;20733;-73
2021/09/29 06:50:56;;;;;;;12.47;6.83;;;;;;;;;;5066737;28;20240;-73
2021/09/29 06:53:24;;;;;;;11.43;6.90;;;;;;;;;;5066192;28;20229;-73
2021/09/29 06:55:51;;;;;;;11.70;6.60;;;;;;;;;;5066520;28;20233;-72
2021/09/29 06:58:18;;;;;;;12.07;7.03;;;;;;;;;;5066337;28;20210;-73
2021/09/29 07:00:45;;;;;;;11.13;7.20;;;;;;;;;;5066535;28;20210;-73
2021/09/29 07:03:13;;;;;;;12.27;6.87;;;;;;;;;;5065653;28;20519;-73
2021/09/29 07:05:40;;;;;;;11.73;7.03;;;;;;;;;;5066483;28;20217;-73
2021/09/29 07:08:07;;;;;;;9.67;7.17;;;;;;;;;;5037091;28;20275;-73
2021/09/29 07:10:35;;;;;;;9.40;7.30;;;;;;;;;;5064635;28;20692;-73
2021/09/29 07:13:01;;;;;;;9.43;6.20;;;;;;;;;;5065856;28;20263;-73
2021/09/29 07:15:28;;;;;;;9.30;6.50;;;;;;;;;;5065785;28;20217;-73
2021/09/29 07:17:58;;;;;;;11.77;6.70;;;;;;;;;;5065471;28;20298;-73
2021/09/29 07:20:25;;;;;;;9.77;6.27;;;;;;;;;;5064641;28;20230;-73
2021/09/29 07:22:52;;;;;;;10.67;6.70;;;;;;;;;;5065461;28;20524;-73
2021/09/29 07:25:18;;;;;;;10.27;5.93;;;;;;;;;;5065218;28;20233;-73
2021/09/29 07:27:46;;;;;;;8.20;6.20;;;;;;;;;;5066205;28;20324;-72
2021/09/29 07:30:13;;;;;;;10.47;5.67;;;;;;;;;;5065207;28;20232;-73
2021/09/29 07:32:39;;;;;;;9.07;6.17;;;;;;;;;;5066686;28;20217;-73
2021/09/29 07:35:06;;;;;;;14.17;6.40;;;;;;;;;;5063675;28;20288;-71
2021/09/29 07:37:33;;;;;;;8.90;6.50;;;;;;;;;;5065407;28;20225;-73
2021/09/29 07:39:59;;;;;;;8.43;6.10;;;;;;;;;;5065193;28;20202;-73
2021/09/29 07:42:26;;;;;;;10.47;5.80;;;;;;;;;;5065530;28;21296;-73
2021/09/29 07:44:54;;;;;;;10.50;6.10;;;;;;;;;;5064536;28;20282;-73
2021/09/29 07:47:21;;;;;;;9.73;6.30;;;;;;;;;;5063931;28;20272;-73
2021/09/29 07:49:47;;;;;;;8.90;5.90;;;;;;;;;;5065201;28;20237;-73
2021/09/29 07:52:14;;;;;;;7.37;5.83;;;;;;;;;;5063510;28;20245;-70
2021/09/29 07:54:41;;;;;;;9.13;5.83;;;;;;;;;;5064104;28;21227;-71
2021/09/29 07:57:07;;;;;;;9.77;5.80;;;;;;;;;;5062910;28;20217;-71
2021/09/29 07:59:33;;;;;;;12.40;5.60;;;;;;;;;;5065354;28;20283;-70
2021/09/29 08:02:02;;;;;;;7.73;5.53;;;;;;;;;;5065522;28;20206;-70
2021/09/29 08:04:29;;;;;;;9.10;6.00;;;;;;;;;;5064401;28;20233;-71
2021/09/29 08:06:56;;;;;;;11.07;6.80;;;;;;;;;;5065503;28;20795;-75
2021/09/29 08:09:22;;;;;;;8.03;6.23;;;;;;;;;;5065347;28;20228;-76
2021/09/29 08:11:49;;;;;;;8.13;6.60;;;;;;;;;;5065313;28;20280;-76
2021/09/29 08:14:17;;;;;;;11.43;7.70;;;;;;;;;;5064897;28;20286;-74
2021/09/29 08:16:44;;;;;;;13.23;7.43;;;;;;;;;;5065248;28;20229;-75
2021/09/29 08:19:12;;;;;;;10.90;8.43;;;;;;;;;;5065063;28;20520;-75
2021/09/29 08:21:39;;;;;;;13.43;8.63;;;;;;;;;;5065109;28;20213;-73
2021/09/29 08:24:10;;;;;;;14.10;8.03;;;;;;;;;;5065254;28;20213;-74
2021/09/29 08:26:55;;;;;;;12.73;8.83;;;;;;;;;;5065002;28;20228;-74
2021/09/29 08:29:43;;;;;;;14.70;10.50;;;;;;;;;;5065412;28;20321;-77
2021/09/29 08:32:17;;;;;;;11.10;9.07;;;;;;;;;;5064229;28;20898;-75
2021/09/29 08:34:50;;;;;;;11.77;9.13;;;;;;;;;;5066169;28;20232;-74
2021/09/29 08:40:10;;;;;;;14.70;10.30;;;;;;;;;;5063319;28;20299;-74
2021/09/29 08:42:44;;;;;;;13.67;10.60;;;;;;;;;;5064889;28;20232;-74
2021/09/29 08:45:14;;;;;;;16.00;11.53;;;;;;;;;;5064153;28;20220;-75
2021/09/29 08:47:48;;;;;;;15.60;10.70;;;;;;;;;;5064648;28;20538;-73
2021/09/29 08:50:23;;;;;;;14.67;11.50;;;;;;;;;;5064755;28;20212;-73
2021/09/29 08:53:06;;;;;;;14.57;10.80;;;;;;;;;;5064182;28;20846;-73
2021/09/29 09:15:09;;;;;;;9.80;8.43;;;;;;;;;;5063857;28;20612;-73
2021/09/29 09:17:38;;;;;;;11.90;8.93;;;;;;;;;;5064632;28;20255;-73
2021/09/29 09:20:17;;;;;;;13.20;8.80;;;;;;;;;;5064418;28;20671;-73
2021/09/29 09:22:51;;;;;;;10.87;8.90;;;;;;;;;;5064736;28;20299;-73
2021/09/29 09:25:18;;;;;;;11.23;9.37;;;;;;;;;;5064133;28;20327;-73
2021/09/29 09:27:46;;;;;;;10.90;9.73;;;;;;;;;;5064711;28;20225;-72
2021/09/29 09:30:26;;;;;;;13.90;10.53;;;;;;;;;;5064382;28;20655;-71
2021/09/29 09:32:55;;;;;;;11.47;9.60;;;;;;;;;;5064160;28;20246;-71
2021/09/29 09:35:22;;;;;;;11.77;9.90;;;;;;;;;;5067847;28;20304;-71
2021/09/29 09:37:55;;;;;;;10.53;9.40;;;;;;;;;;5068139;28;20212;-71
2021/09/29 09:40:23;;;;;;;10.37;9.33;;;;;;;;;;5067865;28;20310;-72
2021/09/29 09:42:56;;;;;;;9.60;8.77;;;;;;;;;;5068153;28;20216;-72
2021/09/29 09:45:30;;;;;;;10.80;9.70;;;;;;;;;;5068031;28;20282;-72
2021/09/29 09:47:57;;;;;;;11.23;8.93;;;;;;;;;;5068461;28;20209;-71
2021/09/29 09:50:29;;;;;;;6.13;5.53;;;;;;;;;;5067672;28;20286;-71
2021/09/29 09:52:56;;;;;;;7.13;5.40;;;;;;;;;;5067885;28;20249;-70
2021/09/29 09:55:25;;;;;;;6.53;5.03;;;;;;;;;;5067156;28;20313;-70
2021/09/29 09:57:53;;;;;;;5.03;4.63;;;;;;;;;;5067714;28;20270;-70
2021/09/29 10:00:24;;;;;;;6.03;5.30;;;;;;;;;;5066549;28;20205;-70
2021/09/29 10:02:54;;;;;;;5.40;4.60;;;;;;;;;;5066982;28;20224;-70
2021/09/29 10:05:22;;;;;;;5.97;3.37;;;;;;;;;;5067066;28;20213;-71
2021/09/29 10:07:49;;;;;;;3.63;2.83;;;;;;;;;;5067008;28;20225;-71
2021/09/29 10:10:24;;;;;;;3.57;2.80;;;;;;;;;;5066998;28;20278;-71
2021/09/29 10:26:06;;;;;;;6.33;3.53;;;;;;;;;;5067275;28;20560;-71
2021/09/29 10:27:07;;;;;;;4.70;4.20;;;;;;;;;;5067271;28;20257;-71
2021/09/29 10:29:40;;;;;;;5.00;4.50;;;;;;;;;;5067543;28;20217;-71
2021/09/29 10:32:17;;;;;;;4.53;4.17;;;;;;;;;;5067323;28;20350;-71
2021/09/29 10:35:07;;;;;;;5.23;3.83;;;;;;;;;;5066822;28;20215;-70
2021/09/29 10:40:16;;;;;;;5.03;4.43;;;;;;;;;;5067270;28;20661;-70
2021/09/29 10:40:58;;;;;;;6.63;5.07;;;;;;;;;;5066700;28;20228;-70
2021/09/29 10:43:33;;;;;;;5.00;4.60;;;;;;;;;;5066267;28;20453;-70
2021/09/29 10:46:06;;;;;;;5.67;4.40;;;;;;;;;;5066286;28;20328;-72
2021/09/29 10:48:43;;;;;;;5.97;3.93;;;;;;;;;;5067108;28;20835;-72
2021/09/29 11:08:30;;;;;;;2.83;0.60;;;;;;;;;;5066546;28;20215;-72
2021/09/29 11:27:50;;;;;;;0.80;0.27;;;;;;;;;;5065614;28;20300;-69
2021/09/29 11:30:22;;;;;;;3.20;0.60;;;;;;;;;;5065712;28;20217;-69
2021/09/29 11:32:54;;;;;;;3.03;0.67;;;;;;;;;;5065984;28;20231;-68
2021/09/29 11:35:33;;;;;;;0.83;0.53;;;;;;;;;;5065791;28;20219;-69
2021/09/29 12:08:36;;;;;;;1.43;0.40;;;;;;;;;;5064452;28;20255;-70
2021/09/29 12:11:06;;;;;;;2.30;0.50;;;;;;;;;;5067055;28;20316;-70
2021/09/29 12:13:43;;;;;;;0.70;0.30;;;;;;;;;;5065284;28;20303;-68
2021/09/29 12:16:10;;;;;;;0.90;0.40;;;;;;;;;;5064405;28;20208;-68
2021/09/29 12:18:36;;;;;;;1.07;0.30;;;;;;;;;;5064583;28;20294;-68
2021/09/29 12:21:05;;;;;;;0.50;0.20;;;;;;;;;;5064366;28;20217;-68
2021/09/29 12:23:32;;;;;;;1.77;0.30;;;;;;;;;;5065221;28;20220;-68
2021/09/29 12:26:17;;;;;;;1.80;0.50;;;;;;;;;;5064681;28;20688;-68
2021/09/29 12:28:56;;;;;;;0.70;0.40;;;;;;;;;;5064942;28;20678;-67
2021/09/29 12:31:47;;;;;;;1.20;0.70;;;;;;;;;;5064991;28;20644;-68
2021/09/29 12:34:25;;;;;;;1.07;0.90;;;;;;;;;;5064996;28;20763;-72
2021/09/29 12:36:53;;;;;;;2.33;1.50;;;;;;;;;;5065428;28;20629;-71
2021/09/29 12:39:22;;;;;;;2.80;1.47;;;;;;;;;;5065062;28;20267;-71
2021/09/29 12:41:49;;;;;;;3.77;1.70;;;;;;;;;;5065342;28;20221;-70
2021/09/29 12:44:16;;;;;;;5.93;1.80;;;;;;;;;;5064060;28;20691;-70
2021/09/29 12:46:46;;;;;;;4.50;1.70;;;;;;;;;;5065421;28;20274;-69
2021/09/29 12:49:16;;;;;;;3.87;2.03;;;;;;;;;;5065078;28;20217;-70
2021/09/29 12:51:43;;;;;;;2.30;1.40;;;;;;;;;;5065057;28;20317;-69
2021/09/29 12:54:16;;;;;;;5.83;1.60;;;;;;;;;;5064843;28;20253;-71
2021/09/29 12:56:42;;;;;;;5.33;1.43;;;;;;;;;;5065044;28;20218;-71
2021/09/29 12:59:09;;;;;;;3.80;2.00;;;;;;;;;;5064873;28;21090;-72
2021/09/29 13:01:35;;;;;;;2.07;1.23;;;;;;;;;;5065225;28;20283;-69
2021/09/29 13:04:01;;;;;;;1.83;1.00;;;;;;;;;;5064941;28;20224;-68
2021/09/29 13:06:28;;;;;;;2.93;1.20;;;;;;;;;;5064663;28;20224;-67
2021/09/29 13:08:55;;;;;;;2.63;1.10;;;;;;;;;;5065464;28;20262;-70
2021/09/29 13:11:22;;;;;;;4.63;1.00;;;;;;;;;;5068403;28;20277;-68
2021/09/29 13:13:49;;;;;;;4.20;1.77;;;;;;;;;;5069016;28;20217;-70
2021/09/29 13:16:15;;;;;;;3.10;1.30;;;;;;;;;;5068896;28;20216;-68
2021/09/29 13:18:47;;;;;;;4.17;1.03;;;;;;;;;;5069175;28;20212;-72
2021/09/29 13:21:17;;;;;;;2.57;1.00;;;;;;;;;;5068466;28;20291;-71
2021/09/29 13:23:47;;;;;;;3.50;0.97;;;;;;;;;;5069382;28;20224;-72
2021/09/29 13:26:30;;;;;;;2.97;0.93;;;;;;;;;;5068842;28;20220;-72
2021/09/29 13:37:11;;;;;;;1.77;1.00;;;;;;;;;;5068549;28;20651;-71
2021/09/29 13:39:37;;;;;;;3.47;1.13;;;;;;;;;;5068216;28;20253;-71
2021/09/29 13:42:04;;;;;;;2.60;1.10;;;;;;;;;;5068126;28;20254;-70
2021/09/29 13:44:32;;;;;;;4.23;1.40;;;;;;;;;;5067426;28;20942;-71
2021/09/29 13:46:59;;;;;;;3.20;1.40;;;;;;;;;;5068535;28;20220;-71
2021/09/29 13:49:25;;;;;;;6.23;1.53;;;;;;;;;;5067474;28;20959;-71
2021/09/29 13:51:54;;;;;;;5.40;2.20;;;;;;;;;;5068099;28;20223;-71
2021/09/29 13:54:21;;;;;;;4.73;1.50;;;;;;;;;;5067229;28;20231;-71
2021/09/29 13:56:54;;;;;;;3.83;1.53;;;;;;;;;;5067602;28;20232;-71
2021/09/29 13:59:35;;;;;;;4.77;1.90;;;;;;;;;;5067787;28;20672;-71
2021/09/29 14:02:24;;;;;;;3.90;1.73;;;;;;;;;;5068132;28;20208;-72
2021/09/29 14:29:34;;;;;;;4.53;1.10;;;;;;;;;;5067418;28;20836;-71
2021/09/29 14:32:18;;;;;;;4.87;1.50;;;;;;;;;;5067679;28;20898;-72
2021/09/29 14:34:46;;;;;;;7.77;1.93;;;;;;;;;;5067634;28;20640;-70
2021/09/29 14:37:14;;;;;;;3.67;1.40;;;;;;;;;;5067173;28;20213;-71
2021/09/29 14:39:41;;;;;;;4.70;1.43;;;;;;;;;;5067614;28;20221;-71
2021/09/29 14:42:07;;;;;;;5.57;1.73;;;;;;;;;;5067047;28;20233;-70
2021/09/29 14:44:34;;;;;;;8.00;1.53;;;;;;;;;;5067118;28;20539;-70
2021/09/29 14:47:02;;;;;;;4.03;1.47;;;;;;;;;;5066620;28;20285;-70
2021/09/29 14:49:30;;;;;;;7.70;2.27;;;;;;;;;;5066898;28;20212;-70
2021/09/29 14:52:00;;;;;;;8.00;2.23;;;;;;;;;;5067450;28;20249;-70
2021/09/29 14:54:26;;;;;;;6.20;1.40;;;;;;;;;;5066372;28;20506;-69
2021/09/29 14:56:52;;;;;;;3.60;1.07;;;;;;;;;;5066866;28;20816;-69
2021/09/29 14:59:19;;;;;;;1.90;0.70;;;;;;;;;;5066862;28;20227;-69
2021/09/29 15:01:45;;;;;;;3.90;0.53;;;;;;;;;;5067102;28;20308;-69
2021/09/29 15:04:12;;;;;;;3.57;0.70;;;;;;;;;;5066047;28;20215;-69
2021/09/29 15:06:38;;;;;;;1.50;0.50;;;;;;;;;;5066959;28;20220;-69
2021/09/29 15:09:06;;;;;;;8.60;0.90;;;;;;;;;;5067082;28;20240;-69
2021/09/29 15:11:33;;;;;;;1.43;0.50;;;;;;;;;;5066822;28;20237;-69
2021/09/29 15:14:07;;;;;;;5.60;0.57;;;;;;;;;;5067176;28;20790;-69
2021/09/29 15:16:36;;;;;;;1.90;0.60;;;;;;;;;;5066397;28;20205;-69
2021/09/29 15:19:14;;;;;;;3.87;0.90;;;;;;;;;;5066766;28;20220;-69
2021/09/29 15:21:48;;;;;;;4.30;1.10;;;;;;;;;;5066822;28;20216;-70
2021/09/29 15:27:23;;;;;;;3.63;0.87;;;;;;;;;;5065327;28;20291;-70
2021/09/29 15:52:21;;;;;;;5.47;0.80;;;;;;;;;;5039023;28;20223;-69
2021/09/29 15:54:56;;;;;;;1.97;0.70;;;;;;;;;;5065599;28;20255;-68
2021/09/29 15:57:32;;;;;;;1.67;0.40;;;;;;;;;;5065249;28;20642;-68
2021/09/29 16:00:12;;;;;;;2.80;0.80;;;;;;;;;;5065917;28;20221;-68
2021/09/29 16:02:41;;;;;;;2.37;1.03;;;;;;;;;;5065732;28;20212;-68
2021/09/29 16:05:29;;;;;;;5.47;1.13;;;;;;;;;;5065503;28;20244;-69
2021/09/29 16:08:09;;;;;;;6.23;0.97;;;;;;;;;;5065186;28;20213;-69
2021/09/29 16:13:45;;;;;;;5.27;0.87;;;;;;;;;;5065087;28;20300;-68
2021/09/29 16:16:18;;;;;;;5.33;0.90;;;;;;;;;;5064945;28;20248;-69
2021/09/29 16:30:09;;;;;;;7.07;1.43;;;;;;;;;;5066350;28;20270;-69
2021/09/29 16:32:57;;;;;;;5.23;1.10;;;;;;;;;;5066669;28;20320;-70
2021/09/29 16:35:27;;;;;;;6.17;0.80;;;;;;;;;;5065942;28;20209;-71
2021/09/29 16:37:56;;;;;;;5.87;1.40;;;;;;;;;;5066704;28;20223;-71
2021/09/29 16:40:23;;;;;;;4.73;0.73;;;;;;;;;;5065051;28;20318;-70
2021/09/29 16:42:51;;;;;;;4.87;0.80;;;;;;;;;;5064238;28;20220;-71
2021/09/29 16:45:23;;;;;;;4.33;0.87;;;;;;;;;;5065021;28;20221;-71
2021/09/29 16:47:52;;;;;;;3.07;0.73;;;;;;;;;;5065225;28;20211;-71
2021/09/29 16:50:19;;;;;;;3.73;0.70;;;;;;;;;;5064320;28;20583;-70
2021/09/29 16:52:48;;;;;;;3.60;1.03;;;;;;;;;;5064774;28;20240;-69
2021/09/29 16:55:17;;;;;;;4.43;1.30;;;;;;;;;;5064338;28;20268;-69
2021/09/29 16:57:46;;;;;;;4.03;0.90;;;;;;;;;;5064763;28;20221;-68
2021/09/29 17:00:21;;;;;;;3.37;0.80;;;;;;;;;;5064155;28;20266;-68
2021/09/29 17:02:49;;;;;;;7.53;1.17;;;;;;;;;;5065341;28;20305;-68
2021/09/29 17:05:15;;;;;;;4.63;1.00;;;;;;;;;;5064523;28;20758;-68
2021/09/29 17:07:42;;;;;;;6.37;1.50;;;;;;;;;;5065179;28;20219;-68
2021/09/29 17:10:13;;;;;;;4.87;1.37;;;;;;;;;;5064675;28;20290;-68
2021/09/29 17:12:39;;;;;;;4.20;1.30;;;;;;;;;;5064903;28;20302;-68
2021/09/29 17:15:07;;;;;;;8.13;2.20;;;;;;;;;;5065328;28;20216;-68
2021/09/29 17:17:35;;;;;;;7.20;1.30;;;;;;;;;;5065354;28;20288;-68
2021/09/29 17:20:03;;;;;;;5.07;1.20;;;;;;;;;;5062918;28;20219;-68
2021/09/29 17:22:30;;;;;;;8.67;1.27;;;;;;;;;;5065948;28;20282;-70
2021/09/29 17:24:56;;;;;;;3.70;1.20;;;;;;;;;;5064001;28;20220;-71
2021/09/29 17:27:22;;;;;;;5.67;1.07;;;;;;;;;;5063224;28;20825;-70
2021/09/29 17:29:50;;;;;;;5.77;1.40;;;;;;;;;;5063942;28;20216;-70
2021/09/29 17:32:26;;;;;;;4.37;1.60;;;;;;;;;;5064281;28;20220;-69
2021/09/29 17:34:57;;;;;;;8.13;1.10;;;;;;;;;;5064818;28;20208;-70
2021/09/29 17:37:33;;;;;;;2.03;0.70;;;;;;;;;;5064470;28;20304;-70
2021/09/29 17:40:33;;;;;;;6.73;1.17;;;;;;;;;;5064814;28;20208;-70